createdAt,value
2019-06-10T00:00:17.401Z,18.90
2019-06-10T00:02:47.235Z,18.90
2019-06-10T00:05:17.107Z,18.80
2019-06-10T00:07:46.887Z,18.80
2019-06-10T00:10:17.023Z,18.80
2019-06-10T00:12:48.401Z,18.80
2019-06-10T00:15:18.355Z,18.80
2019-06-10T00:17:59.288Z,18.70
2019-06-10T00:20:21.584Z,18.70
2019-06-10T00:22:51.517Z,18.70
2019-06-10T00:25:21.490Z,18.70
2019-06-10T00:27:51.322Z,18.70
2019-06-10T00:30:21.211Z,18.60
2019-06-10T00:32:51.556Z,18.70
2019-06-10T00:35:21.568Z,18.70
2019-06-10T00:37:51.361Z,18.70
2019-06-10T00:40:21.593Z,18.60
2019-06-10T00:42:51.502Z,18.60
2019-06-10T00:45:21.723Z,18.60
2019-06-10T00:48:04.472Z,18.60
2019-06-10T00:50:23.164Z,18.60
2019-06-10T00:52:52.938Z,18.60
2019-06-10T00:55:22.740Z,18.60
2019-06-10T00:57:52.524Z,18.60
2019-06-10T01:00:25.565Z,18.50
2019-06-10T01:02:53.824Z,18.50
2019-06-10T01:05:23.624Z,18.50
2019-06-10T01:07:53.412Z,18.50
2019-06-10T01:10:23.282Z,18.50
2019-06-10T01:12:53.076Z,18.50
2019-06-10T01:15:22.876Z,18.40
2019-06-10T01:17:52.710Z,18.40
2019-06-10T01:20:23.586Z,18.40
2019-06-10T01:22:53.368Z,18.40
2019-06-10T01:25:24.235Z,18.40
2019-06-10T01:27:54.095Z,18.30
2019-06-10T01:30:27.336Z,18.30
2019-06-10T01:32:56.453Z,18.30
2019-06-10T01:35:26.248Z,18.30
2019-06-10T01:37:56.035Z,18.30
2019-06-10T01:40:25.827Z,18.30
2019-06-10T01:42:56.700Z,18.30
2019-06-10T01:45:26.484Z,18.30
2019-06-10T01:47:56.281Z,18.30
2019-06-10T01:50:26.068Z,18.30
2019-06-10T01:52:55.843Z,18.30
2019-06-10T01:55:25.647Z,18.30
2019-06-10T01:57:55.432Z,18.30
2019-06-10T02:00:32.656Z,18.20
2019-06-10T02:03:03.642Z,18.30
2019-06-10T02:05:33.739Z,18.30
2019-06-10T02:08:03.512Z,18.20
2019-06-10T02:10:33.313Z,18.20
2019-06-10T02:13:03.105Z,18.20
2019-06-10T02:15:32.892Z,18.20
2019-06-10T02:18:02.696Z,18.10
2019-06-10T02:20:32.451Z,18.10
2019-06-10T02:23:02.634Z,18.10
2019-06-10T02:25:32.407Z,18.00
2019-06-10T02:28:02.228Z,18.00
2019-06-10T02:30:44.164Z,18.00
2019-06-10T02:33:03.509Z,18.00
2019-06-10T02:35:44.107Z,18.00
2019-06-10T02:38:04.859Z,18.00
2019-06-10T02:40:36.580Z,18.00
2019-06-10T02:43:06.888Z,18.00
2019-06-10T02:45:37.748Z,18.00
2019-06-10T02:48:07.816Z,18.00
2019-06-10T02:50:53.916Z,18.00
2019-06-10T02:53:30.198Z,18.00
2019-06-10T02:55:55.738Z,18.00
2019-06-10T02:58:33.317Z,18.00
2019-06-10T03:00:57.017Z,18.00
2019-06-10T03:03:37.312Z,17.90
2019-06-10T03:05:58.311Z,17.90
2019-06-10T03:08:31.755Z,17.90
2019-06-10T03:10:59.571Z,17.80
2019-06-10T03:13:29.358Z,17.90
2019-06-10T03:16:02.682Z,17.90
2019-06-10T03:18:32.924Z,17.80
2019-06-10T03:21:02.848Z,17.80
2019-06-10T03:23:33.732Z,17.80
2019-06-10T03:26:04.328Z,17.80
2019-06-10T03:28:35.261Z,17.80
2019-06-10T03:31:06.237Z,17.80
2019-06-10T03:33:41.452Z,17.80
2019-06-10T03:36:07.785Z,17.80
2019-06-10T03:38:38.652Z,17.80
2019-06-10T03:41:08.504Z,17.80
2019-06-10T03:43:38.302Z,17.80
2019-06-10T03:46:08.092Z,17.80
2019-06-10T03:48:37.878Z,17.80
2019-06-10T03:51:07.695Z,17.80
2019-06-10T03:53:37.459Z,17.80
2019-06-10T03:56:07.262Z,17.80
2019-06-10T03:58:37.063Z,17.80
2019-06-10T04:01:06.848Z,17.80
2019-06-10T04:03:36.638Z,17.80
2019-06-10T04:06:06.432Z,17.80
2019-06-10T04:08:36.224Z,17.70
2019-06-10T04:11:06.396Z,17.70
2019-06-10T04:13:36.258Z,17.60
2019-06-10T04:16:07.052Z,17.70
2019-06-10T04:18:36.835Z,17.60
2019-06-10T04:21:06.640Z,17.60
2019-06-10T04:23:36.430Z,17.60
2019-06-10T04:26:06.279Z,17.60
2019-06-10T04:28:36.091Z,17.60
2019-06-10T04:31:05.944Z,17.60
2019-06-10T04:33:35.743Z,17.60
2019-06-10T04:36:05.553Z,17.60
2019-06-10T04:38:35.350Z,17.70
2019-06-10T04:41:05.205Z,17.70
2019-06-10T04:43:35.920Z,17.70
2019-06-10T04:46:05.738Z,17.70
2019-06-10T04:48:35.536Z,17.60
2019-06-10T04:51:05.327Z,17.70
2019-06-10T04:53:35.119Z,17.60
2019-06-10T04:56:04.963Z,17.70
2019-06-10T04:58:34.759Z,17.70
2019-06-10T05:01:04.546Z,17.70
2019-06-10T05:03:34.371Z,17.70
2019-06-10T05:06:04.154Z,17.80
2019-06-10T05:08:34.131Z,17.70
2019-06-10T05:11:04.292Z,17.70
2019-06-10T05:13:34.086Z,17.70
2019-06-10T05:16:05.016Z,17.60
2019-06-10T05:18:34.864Z,17.60
2019-06-10T05:21:04.736Z,17.60
2019-06-10T05:23:34.527Z,17.60
2019-06-10T05:26:04.470Z,17.60
2019-06-10T05:28:34.468Z,17.60
2019-06-10T05:31:05.332Z,17.70
2019-06-10T05:33:35.115Z,17.70
2019-06-10T05:36:04.911Z,17.60
2019-06-10T05:38:35.432Z,17.70
2019-06-10T05:41:05.372Z,17.70
2019-06-10T05:43:35.162Z,17.80
2019-06-10T05:46:05.009Z,17.80
2019-06-10T05:48:36.004Z,17.80
2019-06-10T05:51:06.847Z,17.90
2019-06-10T05:53:36.973Z,18.00
2019-06-10T05:56:06.748Z,18.10
2019-06-10T05:58:36.538Z,18.20
2019-06-10T06:01:06.344Z,18.30
2019-06-10T06:03:37.072Z,18.40
2019-06-10T06:06:07.020Z,18.50
2019-06-10T06:08:37.565Z,18.50
2019-06-10T06:11:08.820Z,18.50
2019-06-10T06:13:38.613Z,18.50
2019-06-10T06:16:08.400Z,18.50
2019-06-10T06:18:38.425Z,18.50
2019-06-10T06:21:22.352Z,18.50
2019-06-10T06:23:43.422Z,18.50
2019-06-10T06:26:16.555Z,18.50
2019-06-10T06:28:43.996Z,18.60
2019-06-10T06:31:13.797Z,18.60
2019-06-10T06:33:44.370Z,18.70
2019-06-10T06:36:14.152Z,18.80
2019-06-10T06:38:43.989Z,18.90
2019-06-10T06:41:13.963Z,18.90
2019-06-10T06:43:45.465Z,18.90
2019-06-10T06:46:15.544Z,19.00
2019-06-10T06:48:45.340Z,19.00
2019-06-10T06:51:15.137Z,19.10
2019-06-10T06:53:51.712Z,19.10
2019-06-10T06:56:16.428Z,19.10
2019-06-10T06:58:46.353Z,19.10
2019-06-10T07:01:16.244Z,19.10
2019-06-10T07:03:46.748Z,19.10
2019-06-10T07:06:16.765Z,19.10
2019-06-10T07:09:00.443Z,19.10
2019-06-10T07:11:18.878Z,19.10
2019-06-10T07:13:48.677Z,19.20
2019-06-10T07:16:18.459Z,19.30
2019-06-10T07:18:50.368Z,19.40
2019-06-10T07:21:22.806Z,19.60
2019-06-10T07:23:52.798Z,19.80
2019-06-10T07:26:22.855Z,19.90
2019-06-10T07:28:53.739Z,20.00
2019-06-10T07:31:27.832Z,20.10
2019-06-10T07:33:55.319Z,20.20
2019-06-10T07:36:25.100Z,20.30
2019-06-10T07:38:55.300Z,20.30
2019-06-10T07:41:25.090Z,20.30
2019-06-10T07:43:54.891Z,20.30
2019-06-10T07:46:25.752Z,20.30
2019-06-10T07:48:56.658Z,20.30
2019-06-10T07:51:26.606Z,20.30
2019-06-10T07:53:56.389Z,20.30
2019-06-10T07:56:29.273Z,20.30
2019-06-10T07:58:57.701Z,20.30
2019-06-10T08:01:27.508Z,20.20
2019-06-10T08:03:57.310Z,20.20
2019-06-10T08:06:27.097Z,20.30
2019-06-10T08:08:56.930Z,20.30
2019-06-10T08:11:26.770Z,20.30
2019-06-10T08:13:56.585Z,20.30
2019-06-10T08:16:26.348Z,20.40
2019-06-10T08:19:22.205Z,20.40
2019-06-10T08:21:27.638Z,20.40
2019-06-10T08:23:57.462Z,20.40
2019-06-10T08:26:27.420Z,20.50
2019-06-10T08:28:57.210Z,20.60
2019-06-10T08:31:27.073Z,20.70
2019-06-10T08:33:56.856Z,20.70
2019-06-10T08:36:26.654Z,20.70
2019-06-10T08:38:56.422Z,20.80
2019-06-10T08:41:26.288Z,20.80
2019-06-10T08:43:56.144Z,20.90
2019-06-10T08:46:25.952Z,20.90
2019-06-10T08:48:55.735Z,20.90
2019-06-10T08:51:25.555Z,20.80
2019-06-10T08:53:55.341Z,20.90
2019-06-10T08:56:25.147Z,20.90
2019-06-10T08:58:54.930Z,20.90
2019-06-10T09:01:24.713Z,20.90
2019-06-10T09:03:54.535Z,21.00
2019-06-10T09:06:24.317Z,21.10
2019-06-10T09:08:54.760Z,21.20
2019-06-10T09:11:25.635Z,21.30
2019-06-10T09:13:55.431Z,21.30
2019-06-10T09:16:25.203Z,21.40
2019-06-10T09:18:55.593Z,21.50
2019-06-10T09:21:25.472Z,21.50
2019-06-10T09:23:59.625Z,21.60
2019-06-10T09:26:26.756Z,21.60
2019-06-10T09:28:56.792Z,21.60
2019-06-10T09:31:26.716Z,21.60
2019-06-10T09:33:57.147Z,21.60
2019-06-10T09:36:27.183Z,21.70
2019-06-10T09:38:57.043Z,21.80
2019-06-10T09:41:37.331Z,21.90
2019-06-10T09:43:58.325Z,21.90
2019-06-10T09:46:32.909Z,21.90
2019-06-10T09:49:04.117Z,22.00
2019-06-10T09:51:34.331Z,22.10
2019-06-10T09:54:06.650Z,22.20
2019-06-10T09:56:36.209Z,22.40
2019-06-10T09:59:07.615Z,22.50
2019-06-10T10:01:37.393Z,22.60
2019-06-10T10:04:07.332Z,22.60
2019-06-10T10:06:37.466Z,22.70
2019-06-10T10:09:07.429Z,22.80
2019-06-10T10:11:37.268Z,22.90
2019-06-10T10:14:10.342Z,23.10
2019-06-10T10:16:38.737Z,23.20
2019-06-10T10:19:08.542Z,23.50
2019-06-10T10:21:41.240Z,23.60
2019-06-10T10:24:14.043Z,23.60
2019-06-10T10:26:43.353Z,23.60
2019-06-10T10:29:13.175Z,23.60
2019-06-10T10:31:46.761Z,23.60
2019-06-10T10:34:15.602Z,23.60
2019-06-10T10:36:47.961Z,23.60
2019-06-10T10:39:16.956Z,23.60
2019-06-10T10:41:47.148Z,23.60
2019-06-10T10:44:18.258Z,23.70
2019-06-10T10:46:49.260Z,23.80
2019-06-10T10:49:19.240Z,23.90
2019-06-10T10:51:49.069Z,24.00
2019-06-10T10:54:29.362Z,24.10
2019-06-10T10:56:55.155Z,24.20
2019-06-10T10:59:22.100Z,24.40
2019-06-10T11:01:52.182Z,24.40
2019-06-10T11:04:23.334Z,24.50
2019-06-10T11:06:56.509Z,24.60
2019-06-10T11:09:26.216Z,24.60
2019-06-10T11:11:58.551Z,24.60
2019-06-10T11:14:28.899Z,24.70
2019-06-10T11:16:59.091Z,24.80
2019-06-10T11:19:32.115Z,25.00
2019-06-10T11:22:02.841Z,25.00
2019-06-10T11:24:40.629Z,25.00
2019-06-10T11:27:05.533Z,25.00
2019-06-10T11:29:35.373Z,25.00
2019-06-10T11:32:05.145Z,25.00
2019-06-10T11:34:34.941Z,25.10
2019-06-10T11:37:04.792Z,25.00
2019-06-10T11:39:38.583Z,25.00
2019-06-10T11:42:06.132Z,25.00
2019-06-10T11:44:35.916Z,25.00
2019-06-10T11:47:05.718Z,24.90
2019-06-10T11:49:35.492Z,24.80
2019-06-10T11:52:05.282Z,24.80
2019-06-10T11:54:50.808Z,24.80
2019-06-10T11:57:06.562Z,24.70
2019-06-10T11:59:36.338Z,24.60
2019-06-10T12:02:06.368Z,24.50
2019-06-10T12:04:37.201Z,24.50
2019-06-10T12:07:06.987Z,24.60
2019-06-10T12:09:36.770Z,24.60
2019-06-10T12:12:06.557Z,24.70
2019-06-10T12:14:36.367Z,24.80
2019-06-10T12:17:21.544Z,24.90
2019-06-10T12:19:38.629Z,24.90
2019-06-10T12:22:08.375Z,25.00
2019-06-10T12:24:38.176Z,25.10
2019-06-10T12:27:07.951Z,25.00
2019-06-10T12:29:37.812Z,25.00
2019-06-10T12:32:07.867Z,24.80
2019-06-10T12:34:38.735Z,24.80
2019-06-10T12:37:13.040Z,24.80
2019-06-10T12:39:42.218Z,24.70
2019-06-10T12:42:14.118Z,24.70
2019-06-10T12:44:43.076Z,24.60
2019-06-10T12:47:12.853Z,24.60
2019-06-10T12:49:42.871Z,24.60
2019-06-10T12:52:13.792Z,24.60
2019-06-10T12:54:43.663Z,24.60
2019-06-10T12:57:16.254Z,24.60
2019-06-10T12:59:44.945Z,24.60
2019-06-10T13:02:22.598Z,24.60
2019-06-10T13:04:46.710Z,24.60
2019-06-10T13:07:17.519Z,24.60
2019-06-10T13:09:47.324Z,24.70
2019-06-10T13:12:17.103Z,24.70
2019-06-10T13:14:46.919Z,24.80
2019-06-10T13:17:16.705Z,24.80
2019-06-10T13:19:46.506Z,24.70
2019-06-10T13:22:16.306Z,24.60
2019-06-10T13:24:46.083Z,24.60
2019-06-10T13:27:15.870Z,24.60
2019-06-10T13:29:45.643Z,24.60
2019-06-10T13:32:15.440Z,24.60
2019-06-10T13:34:45.362Z,24.60
2019-06-10T13:37:16.252Z,24.50
2019-06-10T13:39:46.276Z,24.50
2019-06-10T13:42:16.088Z,24.40
2019-06-10T13:44:45.862Z,24.30
2019-06-10T13:47:17.265Z,24.20
2019-06-10T13:49:47.044Z,24.10
2019-06-10T13:52:17.123Z,24.10
2019-06-10T13:54:47.085Z,24.10
2019-06-10T13:57:16.882Z,24.00
2019-06-10T13:59:46.814Z,24.00
2019-06-10T14:02:16.722Z,24.00
2019-06-10T14:04:49.284Z,24.10
2019-06-10T14:07:19.153Z,24.10
2019-06-10T14:09:48.936Z,24.10
2019-06-10T14:12:18.730Z,24.10
2019-06-10T14:14:48.520Z,24.10
2019-06-10T14:17:19.638Z,24.10
2019-06-10T14:19:49.807Z,24.20
2019-06-10T14:22:22.623Z,24.20
2019-06-10T14:24:53.020Z,24.20
2019-06-10T14:27:24.591Z,24.30
2019-06-10T14:29:54.902Z,24.40
2019-06-10T14:32:24.699Z,24.40
2019-06-10T14:34:54.496Z,24.40
2019-06-10T14:37:36.159Z,24.50
2019-06-10T14:39:55.920Z,24.40
2019-06-10T14:42:25.779Z,24.40
2019-06-10T14:44:55.575Z,24.40
2019-06-10T14:47:25.414Z,24.40
2019-06-10T14:49:55.367Z,24.30
2019-06-10T14:52:25.151Z,24.30
2019-06-10T14:54:57.502Z,24.20
2019-06-10T14:57:26.425Z,24.20
2019-06-10T14:59:56.442Z,24.20
2019-06-10T15:02:26.264Z,24.10
2019-06-10T15:04:56.054Z,24.20
2019-06-10T15:07:25.836Z,24.20
2019-06-10T15:09:55.629Z,24.20
2019-06-10T15:12:25.574Z,24.20
2019-06-10T15:14:55.341Z,24.30
2019-06-10T15:17:25.159Z,24.20
2019-06-10T15:19:55.016Z,24.40
2019-06-10T15:22:24.854Z,24.50
2019-06-10T15:24:54.700Z,24.50
2019-06-10T15:27:30.358Z,24.60
2019-06-10T15:29:55.981Z,24.60
2019-06-10T15:32:34.257Z,24.60
2019-06-10T15:34:58.299Z,24.70
2019-06-10T15:37:29.077Z,24.80
2019-06-10T15:39:58.963Z,24.90
2019-06-10T15:42:30.031Z,24.90
2019-06-10T15:45:02.500Z,25.10
2019-06-10T15:47:32.557Z,25.40
2019-06-10T15:50:03.119Z,26.40
2019-06-10T15:52:33.103Z,27.60
2019-06-10T15:55:04.172Z,28.50
2019-06-10T15:57:40.700Z,29.00
2019-06-10T16:00:12.217Z,29.00
2019-06-10T16:02:39.580Z,28.90
2019-06-10T16:05:09.488Z,28.90
2019-06-10T16:07:39.280Z,28.90
2019-06-10T16:10:09.613Z,28.80
2019-06-10T16:12:39.420Z,28.80
2019-06-10T16:15:09.848Z,28.90
2019-06-10T16:17:39.654Z,29.00
2019-06-10T16:20:12.632Z,29.10
2019-06-10T16:22:42.833Z,29.10
2019-06-10T16:25:14.356Z,29.10
2019-06-10T16:27:50.914Z,29.00
2019-06-10T16:30:18.132Z,28.60
2019-06-10T16:32:48.035Z,28.10
2019-06-10T16:35:18.879Z,27.70
2019-06-10T16:37:49.711Z,27.80
2019-06-10T16:40:19.742Z,28.10
2019-06-10T16:42:49.536Z,28.20
2019-06-10T16:45:25.512Z,28.00
2019-06-10T16:47:53.059Z,27.80
2019-06-10T16:50:25.980Z,27.70
2019-06-10T16:52:55.632Z,27.50
2019-06-10T16:55:26.820Z,27.40
2019-06-10T16:57:59.543Z,27.40
2019-06-10T17:00:28.640Z,27.20
2019-06-10T17:02:58.452Z,26.80
2019-06-10T17:05:30.449Z,26.50
2019-06-10T17:07:59.793Z,26.20
2019-06-10T17:10:31.065Z,26.00
2019-06-10T17:13:03.274Z,25.90
2019-06-10T17:15:33.185Z,25.70
2019-06-10T17:18:03.066Z,25.60
2019-06-10T17:20:34.105Z,25.40
2019-06-10T17:23:21.738Z,25.20
2019-06-10T17:25:57.635Z,25.00
2019-06-10T17:28:31.369Z,24.80
2019-06-10T17:31:00.190Z,24.70
2019-06-10T17:33:32.558Z,24.60
2019-06-10T17:36:03.318Z,24.40
2019-06-10T17:38:35.933Z,24.30
2019-06-10T17:41:05.708Z,24.20
2019-06-10T17:43:35.543Z,24.10
2019-06-10T17:46:05.381Z,24.10
2019-06-10T17:48:35.175Z,23.90
2019-06-10T17:51:06.394Z,23.90
2019-06-10T17:53:36.468Z,23.90
2019-06-10T17:56:06.277Z,23.80
2019-06-10T17:58:50.175Z,23.60
2019-06-10T18:01:07.545Z,23.40
2019-06-10T18:03:39.893Z,23.20
2019-06-10T18:06:08.859Z,23.10
2019-06-10T18:08:40.652Z,22.90
2019-06-10T18:11:12.717Z,22.80
2019-06-10T18:13:43.149Z,22.60
2019-06-10T18:16:13.296Z,22.30
2019-06-10T18:18:43.346Z,22.20
2019-06-10T18:21:13.181Z,22.10
2019-06-10T18:23:43.677Z,22.00
2019-06-10T18:26:13.605Z,21.90
2019-06-10T18:29:00.218Z,21.80
2019-06-10T18:31:18.399Z,21.80
2019-06-10T18:33:46.417Z,21.70
2019-06-10T18:36:17.385Z,21.60
2019-06-10T18:38:47.195Z,21.60
2019-06-10T18:41:16.973Z,21.60
2019-06-10T18:43:47.760Z,21.60
2019-06-10T18:46:17.538Z,21.50
2019-06-10T18:48:47.337Z,21.40
2019-06-10T18:51:17.135Z,21.40
2019-06-10T18:53:46.987Z,21.30
2019-06-10T18:56:16.774Z,21.30
2019-06-10T18:58:46.563Z,21.20
2019-06-10T19:01:16.491Z,21.10
2019-06-10T19:03:46.392Z,21.00
2019-06-10T19:06:16.279Z,20.90
2019-06-10T19:08:46.063Z,20.70
2019-06-10T19:11:15.863Z,20.50
2019-06-10T19:13:47.863Z,20.40
2019-06-10T19:16:17.655Z,20.30
2019-06-10T19:18:47.443Z,20.30
2019-06-10T19:21:17.245Z,20.20
2019-06-10T19:23:47.055Z,20.10
2019-06-10T19:26:16.885Z,20.00
2019-06-10T19:28:46.661Z,19.90
2019-06-10T19:31:17.568Z,19.70
2019-06-10T19:33:47.352Z,19.70
2019-06-10T19:36:17.145Z,19.70
2019-06-10T19:38:46.998Z,19.60
2019-06-10T19:41:16.871Z,19.50
2019-06-10T19:43:46.656Z,19.40
2019-06-10T19:46:16.447Z,19.40
2019-06-10T19:48:56.720Z,19.30
2019-06-10T19:51:18.101Z,19.30
2019-06-10T19:53:47.903Z,19.20
2019-06-10T19:56:17.691Z,19.20
2019-06-10T19:58:47.529Z,19.10
2019-06-10T20:01:17.302Z,19.00
2019-06-10T20:03:47.187Z,19.00
2019-06-10T20:06:16.962Z,18.80
2019-06-10T20:08:46.782Z,18.70
2019-06-10T20:11:16.551Z,18.60
2019-06-10T20:13:46.846Z,18.60
2019-06-10T20:16:16.838Z,18.50
2019-06-10T20:18:48.200Z,18.40
2019-06-10T20:21:18.122Z,18.40
2019-06-10T20:23:48.036Z,18.40
2019-06-10T20:26:18.909Z,18.30
2019-06-10T20:28:52.260Z,18.30
2019-06-10T20:31:22.154Z,18.30
2019-06-10T20:33:52.413Z,18.30
2019-06-10T20:36:26.858Z,18.40
2019-06-10T20:38:54.156Z,18.30
2019-06-10T20:41:23.959Z,18.30
2019-06-10T20:43:55.498Z,18.40
2019-06-10T20:46:25.249Z,18.40
2019-06-10T20:48:55.027Z,18.30
2019-06-10T20:51:27.270Z,18.30
2019-06-10T20:53:56.303Z,18.30
2019-06-10T20:56:26.087Z,18.30
2019-06-10T20:58:55.894Z,18.30
2019-06-10T21:01:25.875Z,18.30
2019-06-10T21:03:55.676Z,18.20
2019-06-10T21:06:26.738Z,18.20
2019-06-10T21:08:56.510Z,18.20
2019-06-10T21:11:26.332Z,18.20
2019-06-10T21:13:56.149Z,18.20
2019-06-10T21:16:25.918Z,18.20
2019-06-10T21:18:56.783Z,18.20
2019-06-10T21:21:26.562Z,18.20
2019-06-10T21:23:56.406Z,18.20
2019-06-10T21:26:26.184Z,18.20
2019-06-10T21:28:57.215Z,18.30
2019-06-10T21:31:29.496Z,18.30
2019-06-10T21:33:58.511Z,18.30
2019-06-10T21:36:28.290Z,18.30
2019-06-10T21:38:58.145Z,18.30
2019-06-10T21:41:27.940Z,18.20
2019-06-10T21:43:59.592Z,18.20
2019-06-10T21:46:29.202Z,18.20
2019-06-10T21:48:59.034Z,18.10
2019-06-10T21:51:31.697Z,18.10
2019-06-10T21:54:03.023Z,18.10
2019-06-10T21:56:33.031Z,18.00
2019-06-10T21:59:02.890Z,18.00
2019-06-10T22:01:32.758Z,18.00
2019-06-10T22:04:04.630Z,17.90
2019-06-10T22:06:34.563Z,17.90
2019-06-10T22:09:06.205Z,17.90
2019-06-10T22:11:36.051Z,17.80
2019-06-10T22:14:05.852Z,17.80
2019-06-10T22:16:35.643Z,17.80
2019-06-10T22:19:05.431Z,17.80
2019-06-10T22:21:35.219Z,17.90
2019-06-10T22:24:05.019Z,17.90
2019-06-10T22:26:34.816Z,17.90
2019-06-10T22:29:04.582Z,17.90
2019-06-10T22:31:34.378Z,17.90
2019-06-10T22:34:04.210Z,17.90
2019-06-10T22:36:33.990Z,17.90
2019-06-10T22:39:04.628Z,18.00
2019-06-10T22:41:36.007Z,18.00
2019-06-10T22:44:05.798Z,18.00
2019-06-10T22:46:36.653Z,18.00
2019-06-10T22:49:06.453Z,18.00
2019-06-10T22:51:36.236Z,18.00
2019-06-10T22:54:06.036Z,18.00
2019-06-10T22:56:35.805Z,18.00
2019-06-10T22:59:05.605Z,18.00
2019-06-10T23:01:38.320Z,18.00
2019-06-10T23:04:07.840Z,18.00
2019-06-10T23:06:37.628Z,17.90
2019-06-10T23:09:07.578Z,17.80
2019-06-10T23:11:37.359Z,17.80
2019-06-10T23:14:07.212Z,17.80
2019-06-10T23:16:37.004Z,17.90
2019-06-10T23:19:06.783Z,17.90
2019-06-10T23:21:36.570Z,17.90
2019-06-10T23:24:06.348Z,17.90
2019-06-10T23:26:36.148Z,18.00
2019-06-10T23:29:06.891Z,18.00
2019-06-10T23:31:49.637Z,18.00
2019-06-10T23:34:08.156Z,18.00
2019-06-10T23:36:37.948Z,18.00
2019-06-10T23:39:07.732Z,18.00
2019-06-10T23:41:37.523Z,18.00
2019-06-10T23:44:07.316Z,18.10
2019-06-10T23:46:37.087Z,18.10
2019-06-10T23:49:06.876Z,18.10
2019-06-10T23:51:36.652Z,18.10
2019-06-10T23:54:06.505Z,18.00
2019-06-10T23:56:36.856Z,18.00
2019-06-10T23:59:06.662Z,18.00
